createdAt,value
2023-05-09T00:00:09.462Z,97185.34
2023-05-09T00:02:42.331Z,97181.47
2023-05-09T00:05:14.225Z,97182.66
2023-05-09T00:07:45.962Z,97175.16
2023-05-09T00:10:17.610Z,97172.41
2023-05-09T00:12:49.297Z,97174.72
2023-05-09T00:15:21.033Z,97168.91
2023-05-09T00:17:52.719Z,97162.25
2023-05-09T00:20:24.314Z,97164.22
2023-05-09T00:22:55.928Z,97162.16
2023-05-09T00:25:27.536Z,97160.88
2023-05-09T00:27:59.239Z,97162.69
2023-05-09T00:30:31.456Z,97156.50
2023-05-09T00:33:03.111Z,97153.03
2023-05-09T00:35:34.935Z,97155.53
2023-05-09T00:38:06.493Z,97149.78
2023-05-09T00:40:38.394Z,97147.78
2023-05-09T00:43:10.447Z,97148.53
2023-05-09T00:45:42.922Z,97141.72
2023-05-09T00:48:15.744Z,97141.59
2023-05-09T00:50:47.586Z,97141.06
2023-05-09T00:53:20.275Z,97136.69
2023-05-09T00:55:54.995Z,97132.59
2023-05-09T00:58:27.291Z,97138.78
2023-05-09T01:00:59.348Z,97138.56
2023-05-09T01:03:32.174Z,97123.69
2023-05-09T01:06:16.999Z,97130.03
2023-05-09T01:09:03.525Z,97126.28
2023-05-09T01:12:19.505Z,97117.13
2023-05-09T01:15:06.052Z,97126.16
2023-05-09T01:17:58.377Z,97119.41
2023-05-09T01:20:41.618Z,97117.03
2023-05-09T01:23:45.104Z,97114.94
2023-05-09T01:26:36.723Z,97109.84
2023-05-09T01:29:34.178Z,97106.41
2023-05-09T01:32:13.919Z,97100.44
2023-05-09T01:34:51.829Z,97110.66
2023-05-09T01:37:37.990Z,97101.91
2023-05-09T01:40:18.690Z,97103.13
2023-05-09T01:43:08.301Z,97103.84
2023-05-09T01:45:43.019Z,97105.13
2023-05-09T01:48:16.632Z,97102.72
2023-05-09T01:50:49.689Z,97106.09
2023-05-09T01:53:25.674Z,97096.59
2023-05-09T01:56:00.038Z,97088.84
2023-05-09T01:58:34.210Z,97086.00
2023-05-09T02:01:07.632Z,97094.09
2023-05-09T02:03:45.054Z,97087.84
2023-05-09T02:06:20.805Z,97093.63
2023-05-09T02:08:52.588Z,97102.34
2023-05-09T02:11:24.518Z,97096.53
2023-05-09T02:13:56.681Z,97097.31
2023-05-09T02:16:28.883Z,97094.78
2023-05-09T02:19:01.400Z,97093.69
2023-05-09T02:21:33.390Z,97094.16
2023-05-09T02:24:05.627Z,97088.81
2023-05-09T02:26:39.632Z,97098.91
2023-05-09T02:29:12.396Z,97103.75
2023-05-09T02:31:48.654Z,97098.56
2023-05-09T02:34:21.128Z,97098.88
2023-05-09T02:36:52.988Z,97103.41
2023-05-09T02:39:24.873Z,97100.66
2023-05-09T02:41:56.403Z,97106.34
2023-05-09T02:44:27.997Z,97102.31
2023-05-09T02:46:59.674Z,97105.00
2023-05-09T02:49:32.734Z,97103.50
2023-05-09T02:52:05.742Z,97105.44
2023-05-09T02:54:38.222Z,97100.03
2023-05-09T02:57:09.814Z,97113.91
2023-05-09T02:59:41.450Z,97117.88
2023-05-09T03:02:13.174Z,97115.63
2023-05-09T03:04:45.138Z,97119.28
2023-05-09T03:07:17.073Z,97122.56
2023-05-09T03:09:48.607Z,97117.75
2023-05-09T03:12:20.447Z,97113.28
2023-05-09T03:14:52.191Z,97105.03
2023-05-09T03:17:23.862Z,97101.31
2023-05-09T03:19:55.551Z,97102.03
2023-05-09T03:22:27.594Z,97096.22
2023-05-09T03:25:05.277Z,97090.91
2023-05-09T03:27:37.019Z,97090.59
2023-05-09T03:30:12.631Z,97077.34
2023-05-09T03:32:45.897Z,97069.41
2023-05-09T03:35:17.707Z,97071.69
2023-05-09T03:37:49.323Z,97078.47
2023-05-09T03:40:21.040Z,97082.09
2023-05-09T03:42:59.252Z,97093.81
2023-05-09T03:45:31.151Z,97099.78
2023-05-09T03:48:03.309Z,97093.34
2023-05-09T03:50:37.976Z,97090.69
2023-05-09T03:53:10.005Z,97091.75
2023-05-09T03:55:42.972Z,97085.31
2023-05-09T03:58:17.443Z,97079.16
2023-05-09T04:00:50.700Z,97083.13
2023-05-09T04:03:27.256Z,97085.19
2023-05-09T04:06:00.341Z,97087.59
2023-05-09T04:08:37.426Z,97081.94
2023-05-09T04:11:10.806Z,97085.56
2023-05-09T04:13:46.486Z,97090.31
2023-05-09T04:16:37.354Z,97082.38
2023-05-09T04:19:09.302Z,97086.91
2023-05-09T04:21:41.081Z,97082.06
2023-05-09T04:24:13.636Z,97081.50
2023-05-09T04:26:51.006Z,97086.56
2023-05-09T04:29:26.426Z,97071.75
2023-05-09T04:32:02.460Z,97080.34
2023-05-09T04:34:34.466Z,97079.91
2023-05-09T04:37:12.696Z,97075.47
2023-05-09T04:39:44.651Z,97076.28
2023-05-09T04:42:23.344Z,97074.06
2023-05-09T04:44:54.980Z,97074.50
2023-05-09T04:47:27.423Z,97069.22
2023-05-09T04:49:59.095Z,97070.09
2023-05-09T04:52:31.463Z,97080.97
2023-05-09T04:55:03.181Z,97079.28
2023-05-09T04:57:40.281Z,97073.06
2023-05-09T05:00:12.575Z,97078.13
2023-05-09T05:02:45.317Z,97067.66
2023-05-09T05:05:17.296Z,97065.44
2023-05-09T05:07:48.853Z,97064.28
2023-05-09T05:10:25.249Z,97064.91
2023-05-09T05:13:05.020Z,97067.28
2023-05-09T05:15:36.722Z,97057.34
2023-05-09T05:18:09.300Z,97059.47
2023-05-09T05:20:41.592Z,97056.25
2023-05-09T05:23:13.506Z,97063.28
2023-05-09T05:25:48.642Z,97058.69
2023-05-09T05:28:20.705Z,97055.63
2023-05-09T05:30:52.508Z,97063.25
2023-05-09T05:33:24.459Z,97059.09
2023-05-09T05:35:56.774Z,97063.06
2023-05-09T05:38:28.779Z,97059.78
2023-05-09T05:41:02.232Z,97056.84
2023-05-09T05:43:35.271Z,97057.34
2023-05-09T05:46:07.521Z,97050.78
2023-05-09T05:48:40.042Z,97046.41
2023-05-09T05:51:12.013Z,97040.00
2023-05-09T05:53:45.811Z,97053.84
2023-05-09T05:56:17.894Z,97048.38
2023-05-09T05:58:49.681Z,97042.66
2023-05-09T06:01:22.788Z,97042.50
2023-05-09T06:03:54.689Z,97043.25
2023-05-09T06:06:28.790Z,97031.44
2023-05-09T06:09:00.787Z,97038.69
2023-05-09T06:11:32.466Z,97027.59
2023-05-09T06:14:04.531Z,97020.34
2023-05-09T06:16:36.708Z,97025.91
2023-05-09T06:19:08.819Z,97027.72
2023-05-09T06:21:40.869Z,97027.28
2023-05-09T06:24:31.806Z,97021.06
2023-05-09T06:27:07.324Z,97016.78
2023-05-09T06:29:39.452Z,97022.84
2023-05-09T06:32:11.420Z,97022.00
2023-05-09T06:34:43.140Z,97003.44
2023-05-09T06:37:15.136Z,97011.91
2023-05-09T06:39:47.390Z,97010.88
2023-05-09T06:42:19.587Z,97003.09
2023-05-09T06:44:52.152Z,96995.13
2023-05-09T06:47:24.011Z,96993.78
2023-05-09T06:49:55.839Z,96995.59
2023-05-09T06:52:27.790Z,96988.41
2023-05-09T06:55:00.395Z,96989.88
2023-05-09T06:57:32.233Z,96984.47
2023-05-09T07:00:04.578Z,96986.00
2023-05-09T07:02:36.279Z,96985.50
2023-05-09T07:05:09.654Z,96976.25
2023-05-09T07:07:41.318Z,96970.03
2023-05-09T07:10:13.216Z,96964.31
2023-05-09T07:12:45.023Z,96963.03
2023-05-09T07:15:28.644Z,96957.00
2023-05-09T07:18:05.200Z,96955.31
2023-05-09T07:20:36.940Z,96958.28
2023-05-09T07:23:08.602Z,96957.38
2023-05-09T07:25:40.475Z,96959.56
2023-05-09T07:28:12.047Z,96953.38
2023-05-09T07:31:11.849Z,96945.97
2023-05-09T07:33:50.170Z,96938.84
2023-05-09T07:36:21.976Z,96934.00
2023-05-09T07:38:53.586Z,96937.22
2023-05-09T07:41:25.192Z,96928.66
2023-05-09T07:43:56.754Z,96930.41
2023-05-09T07:46:28.448Z,96929.34
2023-05-09T07:49:00.089Z,96918.84
2023-05-09T07:51:31.755Z,96918.25
2023-05-09T07:54:03.633Z,96914.13
2023-05-09T07:56:35.466Z,96912.19
2023-05-09T07:59:07.150Z,96908.84
2023-05-09T08:01:38.885Z,96908.91
2023-05-09T08:04:10.776Z,96907.69
2023-05-09T08:06:42.590Z,96904.66
2023-05-09T08:09:14.294Z,96903.34
2023-05-09T08:11:45.964Z,96897.47
2023-05-09T08:14:17.647Z,96890.78
2023-05-09T08:16:49.450Z,96885.13
2023-05-09T08:19:21.108Z,96882.88
2023-05-09T08:21:53.210Z,96874.03
2023-05-09T08:24:25.076Z,96875.59
2023-05-09T08:26:57.260Z,96879.50
2023-05-09T08:29:29.620Z,96880.00
2023-05-09T08:32:02.517Z,96870.25
2023-05-09T08:34:35.564Z,96868.72
2023-05-09T08:37:07.941Z,96866.75
2023-05-09T08:39:40.204Z,96865.72
2023-05-09T08:42:13.353Z,96859.38
2023-05-09T08:44:45.141Z,96858.34
2023-05-09T08:47:18.089Z,96859.22
2023-05-09T08:49:52.240Z,96853.31
2023-05-09T08:52:24.742Z,96848.34
2023-05-09T08:54:57.102Z,96857.94
2023-05-09T08:57:29.868Z,96848.94
2023-05-09T09:00:03.707Z,96849.75
2023-05-09T09:02:35.553Z,96844.50
2023-05-09T09:07:41.459Z,96825.78
2023-05-09T09:10:13.832Z,96827.47
2023-05-09T09:12:46.719Z,96825.50
2023-05-09T09:15:22.571Z,96819.84
2023-05-09T09:17:57.861Z,96819.16
2023-05-09T09:20:33.738Z,96821.75
2023-05-09T09:23:09.380Z,96824.66
2023-05-09T09:25:41.008Z,96808.03
2023-05-09T09:28:12.714Z,96812.88
2023-05-09T09:30:48.365Z,96802.06
2023-05-09T09:33:21.794Z,96796.41
2023-05-09T09:35:55.263Z,96807.56
2023-05-09T09:38:26.917Z,96795.22
2023-05-09T09:40:59.261Z,96793.06
2023-05-09T09:43:32.038Z,96796.25
2023-05-09T09:46:05.391Z,96785.63
2023-05-09T09:48:36.997Z,96786.25
2023-05-09T09:51:10.373Z,96784.91
2023-05-09T09:53:43.384Z,96776.19
2023-05-09T09:56:15.127Z,96773.66
2023-05-09T09:58:46.762Z,96767.97
2023-05-09T10:01:18.406Z,96759.34
2023-05-09T10:03:50.136Z,96751.41
2023-05-09T10:06:21.867Z,96749.34
2023-05-09T10:08:53.461Z,96738.28
2023-05-09T10:11:25.117Z,96742.53
2023-05-09T10:13:57.004Z,96732.66
2023-05-09T10:16:40.181Z,96736.69
2023-05-09T10:19:19.184Z,96722.56
2023-05-09T10:21:54.497Z,96708.97
2023-05-09T10:24:56.865Z,96722.75
2023-05-09T10:27:35.328Z,96712.59
2023-05-09T10:30:12.823Z,96706.16
2023-05-09T10:33:23.053Z,96702.75
2023-05-09T10:35:58.211Z,96704.53
2023-05-09T10:38:30.908Z,96702.75
2023-05-09T10:41:03.774Z,96692.66
2023-05-09T10:43:36.830Z,96691.63
2023-05-09T10:46:09.517Z,96684.28
2023-05-09T10:48:43.886Z,96674.50
2023-05-09T10:51:17.332Z,96675.81
2023-05-09T10:53:50.942Z,96672.41
2023-05-09T10:56:26.872Z,96673.59
2023-05-09T10:59:00.318Z,96670.22
2023-05-09T11:01:38.180Z,96665.13
2023-05-09T11:04:17.138Z,96658.09
2023-05-09T11:06:52.751Z,96657.13
2023-05-09T11:09:36.391Z,96655.63
2023-05-09T11:12:14.154Z,96650.66
2023-05-09T11:14:47.150Z,96648.28
2023-05-09T11:17:22.362Z,96653.00
2023-05-09T11:20:04.356Z,96637.66
2023-05-09T11:22:40.671Z,96635.81
2023-05-09T11:25:14.841Z,96633.19
2023-05-09T11:27:49.578Z,96633.09
2023-05-09T11:30:23.248Z,96642.72
2023-05-09T11:32:55.978Z,96634.13
2023-05-09T11:35:28.431Z,96630.47
2023-05-09T11:38:02.552Z,96632.81
2023-05-09T11:40:35.305Z,96638.75
2023-05-09T11:43:07.701Z,96633.78
2023-05-09T11:45:41.165Z,96627.16
2023-05-09T11:48:12.711Z,96628.56
2023-05-09T11:50:47.319Z,96631.44
2023-05-09T11:53:18.910Z,96617.06
2023-05-09T11:55:50.576Z,96617.75
2023-05-09T11:58:22.235Z,96614.84
2023-05-09T12:00:53.937Z,96612.59
2023-05-09T12:03:26.030Z,96605.66
2023-05-09T12:05:57.840Z,96596.97
2023-05-09T12:08:29.469Z,96593.19
2023-05-09T12:11:10.539Z,96593.09
2023-05-09T12:13:49.572Z,96586.78
2023-05-09T12:16:21.326Z,96584.56
2023-05-09T12:18:53.460Z,96582.66
2023-05-09T12:21:25.053Z,96586.56
2023-05-09T12:23:56.648Z,96581.56
2023-05-09T12:26:28.778Z,96574.81
2023-05-09T12:29:00.817Z,96586.22
2023-05-09T12:31:32.941Z,96581.03
2023-05-09T12:34:04.842Z,96574.84
2023-05-09T12:36:36.988Z,96570.53
2023-05-09T12:39:10.211Z,96567.81
2023-05-09T12:41:57.335Z,96566.44
2023-05-09T12:44:33.055Z,96576.19
2023-05-09T12:47:05.184Z,96569.28
2023-05-09T12:49:37.083Z,96573.25
2023-05-09T12:52:18.931Z,96570.81
2023-05-09T12:54:53.050Z,96577.78
2023-05-09T12:57:25.908Z,96571.53
2023-05-09T12:59:58.692Z,96565.22
2023-05-09T13:02:38.544Z,96561.88
2023-05-09T13:05:12.870Z,96572.50
2023-05-09T13:07:47.328Z,96560.22
2023-05-09T13:10:20.414Z,96564.75
2023-05-09T13:12:52.519Z,96567.22
2023-05-09T13:15:24.397Z,96564.03
2023-05-09T13:17:56.269Z,96561.28
2023-05-09T13:20:28.100Z,96560.38
2023-05-09T13:23:00.731Z,96557.03
2023-05-09T13:25:32.467Z,96557.69
2023-05-09T13:28:05.402Z,96553.03
2023-05-09T13:30:38.456Z,96559.56
2023-05-09T13:33:24.417Z,96559.00
2023-05-09T13:35:56.889Z,96562.25
2023-05-09T13:38:28.894Z,96558.94
2023-05-09T13:41:02.422Z,96559.91
2023-05-09T13:43:34.459Z,96559.72
2023-05-09T13:46:06.787Z,96559.53
2023-05-09T13:48:38.650Z,96563.59
2023-05-09T13:51:10.734Z,96567.75
2023-05-09T13:53:43.561Z,96562.03
2023-05-09T13:56:15.674Z,96562.09
2023-05-09T13:58:47.333Z,96563.47
2023-05-09T14:01:18.950Z,96556.63
2023-05-09T14:03:50.574Z,96563.34
2023-05-09T14:06:22.283Z,96563.69
2023-05-09T14:08:53.893Z,96562.13
2023-05-09T14:11:25.900Z,96564.16
2023-05-09T14:13:57.439Z,96562.44
2023-05-09T14:16:29.171Z,96555.78
2023-05-09T14:19:00.981Z,96557.03
2023-05-09T14:21:32.564Z,96556.75
2023-05-09T14:24:04.517Z,96554.16
2023-05-09T14:26:36.572Z,96554.16
2023-05-09T14:29:08.214Z,96554.13
2023-05-09T14:31:39.849Z,96551.78
2023-05-09T14:34:11.459Z,96551.59
2023-05-09T14:36:43.103Z,96542.38
2023-05-09T14:39:14.687Z,96547.63
2023-05-09T14:41:46.357Z,96541.66
2023-05-09T14:44:17.978Z,96544.22
2023-05-09T14:46:49.732Z,96538.75
2023-05-09T14:49:21.503Z,96538.50
2023-05-09T14:51:56.322Z,96532.91
2023-05-09T14:54:28.076Z,96532.22
2023-05-09T14:56:59.780Z,96537.09
2023-05-09T14:59:31.762Z,96533.84
2023-05-09T15:02:03.752Z,96539.31
2023-05-09T15:04:35.836Z,96538.84
2023-05-09T15:07:07.829Z,96535.66
2023-05-09T15:09:39.605Z,96535.94
2023-05-09T15:12:11.715Z,96536.78
2023-05-09T15:14:43.574Z,96535.06
2023-05-09T15:17:15.377Z,96536.75
2023-05-09T15:19:47.086Z,96538.69
2023-05-09T15:22:19.001Z,96534.47
2023-05-09T15:24:50.842Z,96539.94
2023-05-09T15:27:22.972Z,96545.03
2023-05-09T15:29:54.972Z,96538.38
2023-05-09T15:32:30.403Z,96544.50
2023-05-09T15:35:02.852Z,96548.91
2023-05-09T15:37:35.777Z,96541.72
2023-05-09T15:40:09.261Z,96541.81
2023-05-09T15:42:41.257Z,96541.66
2023-05-09T15:45:13.214Z,96540.63
2023-05-09T15:47:45.127Z,96538.72
2023-05-09T15:50:17.443Z,96544.38
2023-05-09T15:52:49.443Z,96535.13
2023-05-09T15:55:22.221Z,96541.81
2023-05-09T15:57:54.198Z,96535.72
2023-05-09T16:00:27.686Z,96535.72
2023-05-09T16:02:59.921Z,96530.88
2023-05-09T16:05:32.629Z,96539.34
2023-05-09T16:08:04.698Z,96533.09
2023-05-09T16:10:36.839Z,96538.94
2023-05-09T16:13:09.045Z,96537.38
2023-05-09T16:15:40.863Z,96535.53
2023-05-09T16:18:12.502Z,96534.34
2023-05-09T16:20:44.262Z,96538.34
2023-05-09T16:23:15.825Z,96534.44
2023-05-09T16:25:47.457Z,96530.41
2023-05-09T16:28:18.953Z,96530.09
2023-05-09T16:30:50.889Z,96532.94
2023-05-09T16:33:22.509Z,96525.88
2023-05-09T16:35:54.068Z,96521.81
2023-05-09T16:38:26.121Z,96522.91
2023-05-09T16:40:57.698Z,96529.84
2023-05-09T16:43:29.303Z,96526.25
2023-05-09T16:46:00.890Z,96522.03
2023-05-09T16:48:32.468Z,96530.16
2023-05-09T16:51:04.151Z,96535.69
2023-05-09T16:53:35.715Z,96538.41
2023-05-09T16:56:07.329Z,96538.63
2023-05-09T16:58:39.075Z,96540.34
2023-05-09T17:01:10.788Z,96535.75
2023-05-09T17:03:42.395Z,96544.50
2023-05-09T17:06:14.024Z,96543.84
2023-05-09T17:08:46.045Z,96547.28
2023-05-09T17:11:17.583Z,96538.84
2023-05-09T17:13:49.161Z,96534.53
2023-05-09T17:16:20.936Z,96537.91
2023-05-09T17:18:52.800Z,96540.78
2023-05-09T17:21:24.560Z,96546.31
2023-05-09T17:23:56.365Z,96555.66
2023-05-09T17:26:28.088Z,96546.78
2023-05-09T17:28:59.947Z,96551.69
2023-05-09T17:31:31.592Z,96556.44
2023-05-09T17:34:03.481Z,96560.84
2023-05-09T17:36:35.572Z,96563.38
2023-05-09T17:39:07.622Z,96567.78
2023-05-09T17:41:39.536Z,96576.31
2023-05-09T17:44:12.408Z,96582.94
2023-05-09T17:46:45.219Z,96581.22
2023-05-09T17:49:17.419Z,96582.28
2023-05-09T17:51:49.483Z,96579.13
2023-05-09T17:54:21.224Z,96579.75
2023-05-09T17:56:53.517Z,96583.06
2023-05-09T17:59:25.792Z,96580.13
2023-05-09T18:01:59.517Z,96579.00
2023-05-09T18:04:31.462Z,96580.75
2023-05-09T18:07:03.774Z,96583.91
2023-05-09T18:09:35.645Z,96578.19
2023-05-09T18:12:08.302Z,96587.03
2023-05-09T18:14:41.316Z,96587.03
2023-05-09T18:17:13.625Z,96597.16
2023-05-09T18:19:45.645Z,96598.59
2023-05-09T18:22:17.533Z,96601.59
2023-05-09T18:24:49.631Z,96603.16
2023-05-09T18:27:22.745Z,96601.09
2023-05-09T18:29:54.828Z,96598.91
2023-05-09T18:32:26.743Z,96606.00
2023-05-09T18:34:58.391Z,96615.63
2023-05-09T18:37:29.958Z,96608.69
2023-05-09T18:40:01.632Z,96603.63
2023-05-09T18:42:33.306Z,96616.25
2023-05-09T18:45:05.333Z,96603.91
2023-05-09T18:47:38.046Z,96610.59
2023-05-09T18:50:10.215Z,96606.31
2023-05-09T18:52:41.823Z,96604.88
2023-05-09T18:55:13.475Z,96608.97
2023-05-09T18:57:45.601Z,96606.31
2023-05-09T19:00:17.546Z,96607.91
2023-05-09T19:02:49.289Z,96607.22
2023-05-09T19:05:20.935Z,96613.50
2023-05-09T19:07:54.108Z,96602.63
2023-05-09T19:10:26.025Z,96600.28
2023-05-09T19:12:57.831Z,96608.47
2023-05-09T19:15:29.596Z,96617.09
2023-05-09T19:18:01.874Z,96610.22
2023-05-09T19:20:33.710Z,96620.22
2023-05-09T19:23:05.474Z,96625.03
2023-05-09T19:25:37.308Z,96627.59
2023-05-09T19:28:09.147Z,96637.78
2023-05-09T19:30:41.675Z,96624.69
2023-05-09T19:33:13.590Z,96638.13
2023-05-09T19:35:45.369Z,96656.03
2023-05-09T19:38:17.174Z,96643.31
2023-05-09T19:40:49.053Z,96653.66
2023-05-09T19:43:21.018Z,96652.25
2023-05-09T19:45:52.747Z,96656.50
2023-05-09T19:48:24.709Z,96670.03
2023-05-09T19:50:57.931Z,96660.66
2023-05-09T19:53:29.902Z,96667.41
2023-05-09T19:56:03.588Z,96667.41
2023-05-09T19:58:35.572Z,96675.75
2023-05-09T20:01:07.474Z,96666.72
2023-05-09T20:03:40.104Z,96674.47
2023-05-09T20:06:16.028Z,96665.59
2023-05-09T20:08:48.018Z,96666.03
2023-05-09T20:11:20.587Z,96665.34
2023-05-09T20:13:52.331Z,96661.34
2023-05-09T20:16:24.919Z,96663.22
2023-05-09T20:18:56.780Z,96653.53
2023-05-09T20:21:30.177Z,96662.50
2023-05-09T20:24:03.095Z,96663.28
2023-05-09T20:26:34.938Z,96661.72
2023-05-09T20:29:07.755Z,96666.16
2023-05-09T20:31:40.229Z,96663.44
2023-05-09T20:34:12.244Z,96655.19
2023-05-09T20:36:48.616Z,96663.31
2023-05-09T20:39:21.110Z,96667.22
2023-05-09T20:41:53.561Z,96666.13
2023-05-09T20:44:25.573Z,96669.91
2023-05-09T20:46:57.879Z,96675.31
2023-05-09T20:49:30.192Z,96682.56
2023-05-09T20:52:02.145Z,96683.38
2023-05-09T20:54:33.702Z,96687.94
2023-05-09T20:57:05.266Z,96695.50
2023-05-09T20:59:36.855Z,96684.88
2023-05-09T21:02:08.394Z,96686.72
2023-05-09T21:04:39.906Z,96689.19
2023-05-09T21:07:11.475Z,96695.53
2023-05-09T21:09:42.991Z,96692.22
2023-05-09T21:12:14.573Z,96702.28
2023-05-09T21:14:46.064Z,96696.25
2023-05-09T21:17:17.748Z,96697.88
2023-05-09T21:19:49.922Z,96699.09
2023-05-09T21:22:21.529Z,96695.25
2023-05-09T21:24:53.198Z,96693.25
2023-05-09T21:27:24.810Z,96692.19
2023-05-09T21:29:56.352Z,96694.41
2023-05-09T21:32:27.873Z,96695.34
2023-05-09T21:34:59.558Z,96702.00
2023-05-09T21:37:31.083Z,96705.94
2023-05-09T21:40:05.397Z,96711.47
2023-05-09T21:42:37.394Z,96712.72
2023-05-09T21:45:09.511Z,96717.16
2023-05-09T21:47:41.240Z,96713.69
2023-05-09T21:50:13.046Z,96712.09
2023-05-09T21:52:44.657Z,96718.25
2023-05-09T21:55:21.170Z,96722.81
2023-05-09T21:57:52.923Z,96724.56
2023-05-09T22:00:32.394Z,96721.91
2023-05-09T22:03:04.819Z,96731.63
2023-05-09T22:05:36.816Z,96737.69
2023-05-09T22:08:08.607Z,96737.06
2023-05-09T22:10:40.218Z,96742.16
2023-05-09T22:13:12.003Z,96740.41
2023-05-09T22:15:43.940Z,96723.88
2023-05-09T22:18:15.842Z,96724.88
2023-05-09T22:20:48.266Z,96726.84
2023-05-09T22:23:20.093Z,96730.00
2023-05-09T22:25:51.999Z,96715.31
2023-05-09T22:28:24.026Z,96715.56
2023-05-09T22:30:55.813Z,96728.19
2023-05-09T22:33:27.754Z,96725.78
2023-05-09T22:36:00.136Z,96737.22
2023-05-09T22:38:32.042Z,96738.47
2023-05-09T22:41:03.935Z,96740.13
2023-05-09T22:43:39.189Z,96736.47
2023-05-09T22:46:12.055Z,96746.66
2023-05-09T22:48:43.960Z,96743.78
2023-05-09T22:51:15.914Z,96745.09
2023-05-09T22:53:48.266Z,96742.13
2023-05-09T22:56:20.184Z,96737.56
2023-05-09T22:58:52.288Z,96740.63
2023-05-09T23:01:24.301Z,96745.88
2023-05-09T23:03:56.196Z,96750.31
2023-05-09T23:06:28.391Z,96744.94
2023-05-09T23:09:01.647Z,96753.28
2023-05-09T23:11:33.244Z,96759.59
2023-05-09T23:14:04.822Z,96757.63
2023-05-09T23:16:36.458Z,96742.63
2023-05-09T23:19:08.032Z,96750.78
2023-05-09T23:21:39.742Z,96749.03
2023-05-09T23:24:11.369Z,96750.44
2023-05-09T23:26:43.085Z,96747.94
2023-05-09T23:29:14.733Z,96734.03
2023-05-09T23:32:04.928Z,96740.94
2023-05-09T23:34:36.623Z,96745.25
2023-05-09T23:37:08.289Z,96745.75
2023-05-09T23:39:39.846Z,96740.84
2023-05-09T23:42:11.429Z,96732.97
2023-05-09T23:44:43.093Z,96726.47
2023-05-09T23:47:14.676Z,96716.34
2023-05-09T23:49:46.298Z,96716.19
2023-05-09T23:52:17.917Z,96719.34
2023-05-09T23:54:49.627Z,96720.69
2023-05-09T23:57:21.264Z,96722.00
2023-05-09T23:59:52.883Z,96724.56
